»·PEaware :: N850VJ KFXE-KTPA

N850VJ :: KFXE-KTPA

FLIGHT INFORMATION

Flight Status: Arrived
Operator: Privately registered:
United States
More flights under this callsign
Pilot: Anonymous 13363 (13363)
Aircraft: Unknown
(TBM9)
More flights by this aircraft type
Origin: KFXE Ft Lauderdale Executive
United States
Destination: KTPA Tampa Intl
United States
More flights between these airports :: More routes between these airports
Route: THNDR LBV BRDGE8
File this flight plan on PilotEdge
Remarks: FIFE TRREEEEEE
Altitude:
(Current/Filed)
20,000ft
Speed:
(Current/Filed)
370kts
Departed: 12-Jan-18 02:08 PM
Arrived: 12-Jan-18 02:59 PM
Distance/Time
Traveled:
165nm/0:51
Distance/Time
To Go:
Arrived

Flight Plot

Page will automatically refresh every two minutes.

Flight plan parsing failed; only flown route is shown


Map Options




Map Legend


Flown Route
Filed Route
Departure Airport
Arrival Airport
Navaid (VOR, NDB)
Fix

Horizontal Profiles

Position Reports

Time Latitude Longitude Heading Altitude Ground
Speed
12-Jan-18 14:06 26.194853 -80.171254 36 10ft 0kts
12-Jan-18 14:07 26.194853 -80.171254 36 10ft 0kts
12-Jan-18 14:08 26.194853 -80.171254 36 10ft 0kts
12-Jan-18 14:09 26.194853 -80.171254 36 10ft 0kts
12-Jan-18 14:10 26.194871 -80.171238 39 10ft 0kts
12-Jan-18 14:11 26.196493 -80.169791 38 10ft 12kts
12-Jan-18 14:12 26.197983 -80.167194 83 10ft 13kts
12-Jan-18 14:13 26.198476 -80.163069 46 10ft 5kts
12-Jan-18 14:14 26.199150 -80.164801 259 10ft 51kts
12-Jan-18 14:15 26.194146 -80.197461 268 1551ft 132kts
12-Jan-18 14:16 26.214243 -80.230125 300 3812ft 143kts
12-Jan-18 14:17 26.234117 -80.259097 301 5611ft 146kts
12-Jan-18 14:18 26.262744 -80.301236 300 7915ft 151kts
12-Jan-18 14:19 26.287514 -80.337751 294 9795ft 149kts
12-Jan-18 14:20 26.308011 -80.368675 294 11190ft 151kts
12-Jan-18 14:21 26.333144 -80.406943 295 12977ft 156kts
12-Jan-18 14:22 26.358663 -80.446099 295 14844ft 158kts
12-Jan-18 14:23 26.384579 -80.486167 296 16503ft 163kts
12-Jan-18 14:24 26.411047 -80.527352 296 18016ft 166kts
12-Jan-18 14:25 26.438187 -80.569717 295 19412ft 169kts
12-Jan-18 14:26 26.467106 -80.615406 296 20020ft 206kts
12-Jan-18 14:27 26.500079 -80.667657 297 20009ft 235kts
12-Jan-18 14:28 26.538360 -80.728467 297 19972ft 247kts
12-Jan-18 14:29 26.577986 -80.791705 297 19970ft 251kts
12-Jan-18 14:30 26.617753 -80.855492 297 19917ft 253kts
12-Jan-18 14:31 26.659466 -80.918641 299 19914ft 253kts
12-Jan-18 14:32 26.701401 -80.981673 299 19914ft 253kts
12-Jan-18 14:33 26.743281 -81.044830 299 19914ft 253kts
12-Jan-18 14:34 26.785025 -81.107965 299 19914ft 253kts
12-Jan-18 14:35 26.826800 -81.171314 299 19914ft 253kts
12-Jan-18 14:36 26.868505 -81.234711 299 19914ft 253kts
12-Jan-18 14:37 26.910140 -81.298140 299 19913ft 253kts
12-Jan-18 14:38 26.951710 -81.361603 299 19913ft 253kts
12-Jan-18 14:39 26.993271 -81.425177 299 19913ft 253kts
12-Jan-18 14:40 27.034713 -81.488685 299 19913ft 253kts
12-Jan-18 14:41 27.076101 -81.552220 299 19913ft 253kts
12-Jan-18 14:42 27.108085 -81.601388 299 19907ft 253kts
12-Jan-18 14:43 27.134434 -81.641886 298 19934ft 251kts
12-Jan-18 14:44 27.175320 -81.704901 298 19940ft 252kts
12-Jan-18 14:45 27.217351 -81.769960 299 19016ft 279kts
12-Jan-18 14:46 27.264473 -81.842917 300 17077ft 296kts
12-Jan-18 14:47 27.313142 -81.918193 299 15096ft 299kts
12-Jan-18 14:48 27.361648 -81.993321 299 13400ft 291kts
12-Jan-18 14:49 27.408327 -82.065772 299 12091ft 284kts
12-Jan-18 14:50 27.454537 -82.136437 306 10774ft 282kts
12-Jan-18 14:51 27.506411 -82.198875 306 9621ft 276kts
12-Jan-18 14:52 27.558051 -82.261076 306 8836ft 268kts
12-Jan-18 14:53 27.607885 -82.321153 306 8322ft 261kts
12-Jan-18 14:54 27.657028 -82.380568 307 7817ft 258kts
12-Jan-18 14:55 27.710591 -82.430629 349 7278ft 265kts
12-Jan-18 14:56 27.782992 -82.438992 350 6790ft 262kts
12-Jan-18 14:57 27.854528 -82.447362 351 6291ft 261kts
12-Jan-18 14:58 27.926144 -82.455580 351 5793ft 261kts
12-Jan-18 14:59 27.997620 -82.463793 351 5295ft 261kts
12-Jan-18 15:00 28.059715 -82.471025 352 4671ft 193kts
12-Jan-18 15:01 28.069309 -82.512128 250 4100ft 155kts
12-Jan-18 15:02 28.038583 -82.526817 174 2545ft 149kts
12-Jan-18 15:03 28.004563 -82.527659 173 886ft 119kts
12-Jan-18 15:04 27.977634 -82.528479 188 20ft 53kts
12-Jan-18 15:05 27.969474 -82.528820 167 17ft 28kts
12-Jan-18 15:06 27.968056 -82.526441 179 19ft 7kts
12-Jan-18 15:07 27.967856 -82.526446 184 19ft 0kts
12-Jan-18 15:08 27.967856 -82.526446 184 19ft 0kts
12-Jan-18 15:09 27.967856 -82.526446 184 19ft 0kts
12-Jan-18 15:10 27.967856 -82.526446 184 19ft 0kts
12-Jan-18 15:11 27.967856 -82.526446 184 19ft 0kts
12-Jan-18 15:12 27.967856 -82.526446 184 19ft 0kts
12-Jan-18 15:13 27.967856 -82.526446 184 19ft 0kts
12-Jan-18 15:14 27.967856 -82.526446 184 19ft 0kts
12-Jan-18 15:15 27.967856 -82.526446 184 19ft 0kts
12-Jan-18 15:16 27.967856 -82.526446 184 19ft 0kts
12-Jan-18 15:17 27.967856 -82.526446 184 19ft 0kts

Navigation Log

Ident Type
Flight plan parsing failed, navigation log unavailable